Latest Weather Observations for Kalgoorlie-Boulder

IDW60801

Issued at 6:02 pm WST Wednesday 6 May 2015 (issued every 30 minutes, with the page automatically refreshed every 10 minutes)

About weather observations | Map of weather stations | Latest weather observations for WA | Other Formats
Station Details ID: 012038 Name: KALGOORLIE-BOULDER AIRPORT Lat: -30.78 Lon: 121.45 Height: 365.3 m
Data from the previous 72 hours. | See also: Recent months at Kalgoorlie-Boulder
Date/Time
WST
Temp
°C
App
Temp
°C
Dew
Point
Rel
Hum
%
Delta-T
°C
Wind Press
QNH
hPa
Press
MSL
hPa
Rain
since 9 am
mm
Dir
 
Spd
km/h
Gust
km/h
Spd
kts
Gust
kts
06/06:00pm 14.7 11.2 3.7 47 5.1 ESE 11 13 6 7 1027.7 1027.3 0.0
06/05:30pm 16.0 12.0 2.7 41 6.1 ESE 13 15 7 8 1027.4 - 0.0
06/05:00pm 17.1 11.8 1.9 36 6.9 SE 19 24 10 13 1027.2 - 0.0
06/04:30pm 18.1 12.4 0.3 30 7.9 E 20 26 11 14 1027.0 - 0.0
06/04:00pm 18.4 13.3 0.5 30 8.0 SE 17 24 9 13 1026.8 - 0.0
06/03:30pm 18.6 14.3 1.2 31 7.9 SSE 13 24 7 13 1026.8 - 0.0
06/03:00pm 18.8 14.0 2.5 33 7.6 ESE 17 24 9 13 1026.8 1026.4 0.0
06/02:30pm 18.8 14.4 2.5 33 7.6 E 15 22 8 12 1026.8 - 0.0
06/02:00pm 18.2 13.8 2.5 35 7.3 SE 15 20 8 11 1026.9 - 0.0
06/01:30pm 18.3 15.5 3.2 36 7.2 E 7 15 4 8 1027.0 - 0.0
06/01:00pm 17.6 14.1 3.6 39 6.7 S 11 15 6 8 1027.3 - 0.0
06/12:30pm 18.5 15.1 3.9 38 7.0 ESE 11 20 6 11 1027.7 - 0.0
06/12:00pm 17.9 14.8 3.5 38 6.8 E 9 15 5 8 1028.2 1027.8 0.0
06/11:30am 18.2 14.4 4.0 39 6.8 E 13 19 7 10 1028.6 - 0.0
06/11:00am 16.7 13.7 6.2 50 5.2 E 11 17 6 9 1029.3 - 0.0
06/10:30am 15.7 12.4 6.6 54 4.5 ESE 13 17 7 9 1029.6 - 0.0
06/10:00am 15.2 11.7 7.4 59 3.9 ESE 15 20 8 11 1029.8 - 0.0
06/09:30am 14.4 11.4 7.6 63 3.4 SE 13 22 7 12 1029.9 - 0.0
06/09:00am 13.4 11.1 7.6 68 2.9 SE 9 13 5 7 1029.9 1029.5 0.0
06/08:30am 12.0 9.8 7.7 75 2.1 SE 9 13 5 7 1029.7 - 0.0
06/08:00am 10.4 8.7 7.5 82 1.4 S 6 7 3 4 1029.5 - 0.0
06/07:30am 8.6 6.5 6.7 88 0.9 S 7 9 4 5 1028.9 - 0.0
06/07:00am 6.9 4.6 5.8 93 0.5 S 7 7 4 4 1028.5 - 0.0
06/06:30am 6.4 4.2 5.3 93 0.5 SSW 6 7 3 4 1028.1 - 0.0
06/06:00am 6.7 4.3 5.4 91 0.6 S 7 7 4 4 1027.9 1027.5 0.0
06/05:30am 6.9 5.9 5.6 91 0.6 CALM 0 0 0 0 1027.6 - 0.0
06/05:00am 6.9 5.0 5.1 88 0.8 S 4 7 2 4 1027.3 - 0.0
06/04:30am 7.0 4.8 5.2 88 0.8 S 6 9 3 5 1027.1 - 0.0
06/04:00am 7.0 4.4 4.3 83 1.2 SSW 7 13 4 7 1026.9 - 0.0
06/03:30am 7.1 4.7 4.1 81 1.3 SSE 6 11 3 6 1026.8 - 0.0
06/03:00am 7.1 5.7 3.4 77 1.6 CALM 0 0 0 0 1026.6 1026.1 0.0
06/02:30am 7.2 5.7 3.2 76 1.7 CALM 0 0 0 0 1026.5 - 0.0
06/02:00am 7.9 6.1 3.5 74 1.9 ESE 2 6 1 3 1026.4 - 0.0
06/01:30am 7.7 5.2 3.6 75 1.8 S 6 9 3 5 1026.3 - 0.0
06/01:00am 8.5 5.9 3.2 69 2.3 S 6 7 3 4 1026.3 - 0.0
06/12:30am 8.7 5.6 3.4 69 2.3 S 9 13 5 7 1026.0 - 0.0
06/12:00am 8.8 6.0 3.3 68 2.4 S 7 9 4 5 1025.9 1025.5 0.0
 
Date/Time
WST
Temp
°C
App
Temp
°C
Dew
Point
Rel
Hum
%
Delta-T
°C
Wind Press
QNH
hPa
Press
MSL
hPa
Rain
since 9 am
mm
Dir
 
Spd
km/h
Gust
km/h
Spd
kts
Gust
kts
05/11:30pm 9.5 7.8 4.1 69 2.4 SSW 2 6 1 3 1025.9 - 0.0
05/11:00pm 9.9 6.8 3.8 66 2.7 SSW 9 13 5 7 1026.0 - 0.0
05/10:30pm 10.2 7.1 3.7 64 2.9 SSW 9 11 5 6 1025.9 - 0.0
05/10:00pm 11.3 8.8 3.8 60 3.4 S 6 7 3 4 1026.0 - 0.0
05/09:30pm 11.3 10.0 4.3 62 3.2 CALM 0 4 0 2 1025.9 - 0.0
05/09:00pm 11.0 9.2 3.6 60 3.3 ESE 2 7 1 4 1025.7 1025.3 0.0
05/08:30pm 12.0 9.3 3.9 57 3.7 ESE 7 11 4 6 1025.6 - 0.0
05/08:00pm 12.4 9.9 3.8 55 3.9 SSE 6 6 3 3 1025.3 - 0.0
05/07:30pm 12.8 10.3 3.8 54 4.1 SE 6 7 3 4 1025.1 - 0.0
05/07:00pm 13.4 10.8 4.1 53 4.3 SE 7 9 4 5 1024.8 - 0.0
05/06:30pm 13.9 11.3 4.2 52 4.5 SE 7 9 4 5 1024.5 - 0.0
05/06:00pm 14.6 11.2 4.1 49 4.9 ESE 11 15 6 8 1024.1 1023.6 0.0
05/05:30pm 15.8 11.6 3.9 45 5.6 ESE 15 22 8 12 1023.9 - 0.0
05/05:00pm 16.9 11.3 3.5 41 6.3 ESE 22 28 12 15 1023.6 - 0.0
05/04:30pm 18.2 15.6 3.1 36 7.1 SSW 6 13 3 7 1023.5 - 0.0
05/04:00pm 18.8 14.6 1.6 31 7.9 S 13 20 7 11 1023.5 - 0.0
05/03:30pm 18.9 14.4 2.4 33 7.7 S 15 20 8 11 1023.6 - 0.0
05/03:00pm 19.1 15.0 2.1 32 7.9 SSW 13 20 7 11 1023.6 1023.1 0.0
05/02:30pm 19.0 16.2 2.9 34 7.6 SE 7 13 4 7 1023.7 - 0.0
05/02:00pm 19.3 15.7 3.1 34 7.7 S 11 20 6 11 1023.8 - 0.0
05/01:30pm 17.8 13.4 2.5 36 7.1 SSE 15 22 8 12 1024.1 - 0.0
05/01:00pm 18.3 14.2 2.3 34 7.4 SSE 13 22 7 12 1024.5 - 0.0
05/12:30pm 17.4 13.3 2.1 36 7.0 S 13 20 7 11 1025.1 - 0.0
05/12:00pm 16.9 12.5 2.6 38 6.6 SSE 15 24 8 13 1025.6 1025.2 0.0
05/11:30am 16.3 11.6 3.1 41 6.1 S 17 24 9 13 1026.1 - 0.0
05/11:00am 16.0 11.4 3.8 44 5.7 S 17 24 9 13 1026.6 - 0.0
05/10:30am 15.5 10.4 4.3 47 5.3 SE 20 26 11 14 1026.9 - 0.0
05/10:00am 14.8 10.0 4.6 50 4.8 S 19 28 10 15 1027.0 - 0.0
05/09:30am 13.6 8.6 4.6 54 4.2 S 20 30 11 16 1027.0 - 0.0
05/09:00am 12.4 7.9 4.4 58 3.7 S 17 26 9 14 1026.9 1026.5 0.0
05/08:30am 11.0 5.9 3.9 61 3.2 SSW 20 26 11 14 1026.9 - 0.0
05/08:00am 9.5 3.4 2.8 63 2.9 S 24 35 13 19 1026.5 - 0.0
05/07:30am 8.6 3.4 2.5 65 2.6 SSW 19 28 10 15 1026.0 - 0.0
05/07:00am 7.5 2.3 2.3 69 2.2 SSW 19 24 10 13 1025.9 - 0.0
05/06:30am 6.8 1.9 1.7 70 2.1 SSW 17 20 9 11 1025.8 - 0.0
05/06:00am 6.7 2.1 1.6 70 2.1 SW 15 19 8 10 1025.9 1025.5 0.0
05/05:30am 6.6 2.3 0.9 67 2.3 WSW 13 17 7 9 1025.9 - 0.0
05/05:00am 6.3 2.3 0.5 66 2.3 W 11 13 6 7 1025.9 - 0.0
05/04:30am 5.9 1.8 0.0 66 2.3 W 11 15 6 8 1025.9 - 0.0
05/04:00am 5.1 0.6 -0.4 67 2.1 W 13 17 7 9 1025.8 - 0.0
05/03:30am 5.6 1.0 -1.0 62 2.5 W 13 17 7 9 1025.7 - 0.0
05/03:00am 6.1 1.1 -1.0 60 2.7 W 15 19 8 10 1025.6 1025.2 0.0
05/02:30am 6.5 1.9 -0.7 60 2.8 W 13 19 7 10 1025.5 - 0.0
05/02:00am 6.4 1.8 -1.2 58 2.9 W 13 17 7 9 1025.3 - 0.0
05/01:30am 6.7 2.5 -0.8 59 2.9 W 11 15 6 8 1025.4 - 0.0
05/01:00am 7.0 2.8 -0.7 58 3.0 WSW 11 15 6 8 1025.3 - 0.0
05/12:30am 6.9 3.0 -1.2 56 3.1 W 9 11 5 6 1025.1 - 0.0
05/12:00am 7.6 3.3 -1.8 51 3.6 WSW 11 15 6 8 1024.9 1024.5 0.0
 
Date/Time
WST
Temp
°C
App
Temp
°C
Dew
Point
Rel
Hum
%
Delta-T
°C
Wind Press
QNH
hPa
Press
MSL
hPa
Rain
since 9 am
mm
Dir
 
Spd
km/h
Gust
km/h
Spd
kts
Gust
kts
04/11:30pm 8.2 3.4 -2.7 46 4.1 WSW 13 17 7 9 1024.9 - 0.0
04/11:00pm 8.0 3.6 -2.3 48 3.9 WSW 11 15 6 8 1024.9 - 0.0
04/10:30pm 8.6 4.6 -2.5 45 4.2 WSW 9 13 5 7 1024.9 - 0.0
04/10:00pm 9.1 5.0 -2.8 43 4.5 WSW 9 13 5 7 1024.8 - 0.0
04/09:30pm 9.4 5.0 -2.7 42 4.6 WSW 11 13 6 7 1024.7 - 0.0
04/09:00pm 9.8 5.3 -3.1 40 4.9 WSW 11 15 6 8 1024.5 1024.1 0.0
04/08:30pm 10.6 5.7 -3.7 36 5.4 SW 13 20 7 11 1024.3 - 0.0
04/08:00pm 11.3 5.6 -4.1 34 5.8 SW 17 22 9 12 1023.9 - 0.0
04/07:30pm 11.5 5.7 -4.5 32 6.0 SW 17 20 9 11 1023.6 - 0.0
04/07:00pm 12.2 6.0 -5.3 29 6.5 SW 19 28 10 15 1023.1 - 0.0
04/06:30pm 12.5 6.3 -5.2 28 6.6 SW 19 30 10 16 1022.6 - 0.0
04/06:00pm 12.9 6.4 -5.7 27 6.9 SW 20 30 11 16 1022.0 1021.5 0.0
04/05:30pm 13.5 6.6 -6.3 24 7.3 SW 22 32 12 17 1021.5 - 0.0
04/05:00pm 14.2 6.1 -6.7 23 7.7 SW 28 43 15 23 1021.0 - 0.0
04/04:30pm 14.9 7.2 -6.6 22 8.0 WSW 26 39 14 21 1020.7 - 0.0
04/04:00pm 15.5 7.8 -6.2 22 8.2 WSW 26 41 14 22 1020.2 - 0.0
04/03:30pm 16.0 7.9 -6.5 20 8.5 WSW 28 43 15 23 1019.9 - 0.0
04/03:00pm 15.8 7.3 -6.5 21 8.4 WSW 30 43 16 23 1019.7 1019.3 0.0
04/02:30pm 15.8 6.9 -7.5 19 8.6 WSW 32 52 17 28 1019.5 - 0.0
04/02:00pm 16.3 7.2 -7.3 19 8.8 WSW 33 48 18 26 1019.2 - 0.0
04/01:30pm 16.1 7.7 -6.2 21 8.5 WSW 30 50 16 27 1019.0 - 0.0
04/01:07pm 15.5 6.6 -5.2 23 8.0 WSW 33 54 18 29 1019.0 - 0.0
04/01:00pm 15.3 6.1 -4.7 25 7.8 WSW 35 50 19 27 1019.1 - 0.0
04/12:47pm 15.3 5.6 -5.2 24 7.9 WSW 37 54 20 29 1019.2 - 0.0
04/12:30pm 15.5 6.7 -4.7 24 7.9 SW 33 52 18 28 1019.2 - 0.0
04/12:04pm 14.5 4.4 -5.5 24 7.6 SW 39 50 21 27 1019.4 - 0.0
04/12:00pm 14.8 5.2 -4.9 25 7.6 W 37 46 20 25 1019.3 1018.8 0.0
04/11:56am 15.1 6.3 -4.7 25 7.7 SW 33 52 18 28 1019.4 - 0.0
04/11:46am 14.4 4.8 -4.8 26 7.4 SW 37 50 20 27 1019.5 - 0.0
04/11:30am 14.7 5.5 -4.6 26 7.5 W 35 56 19 30 1019.6 - 0.0
04/11:24am 14.7 4.9 -2.9 29 7.1 W 39 48 21 26 1019.5 - 0.0
04/11:00am 14.6 5.9 -3.1 29 7.1 WSW 33 50 18 27 1019.7 - 0.0
04/10:34am 14.5 6.5 -2.1 32 6.8 WSW 30 48 16 26 1019.4 - 0.0
04/10:30am 13.9 5.4 -2.1 33 6.5 W 33 48 18 26 1019.4 - 0.0
04/10:17am 13.8 5.2 -2.3 32 6.5 W 33 52 18 28 1019.3 - 0.0
04/10:00am 13.6 5.2 -2.2 33 6.4 SW 32 43 17 23 1019.1 - 0.0
04/09:34am 13.3 4.0 -2.4 33 6.3 WSW 37 56 20 30 1018.9 - 0.0
04/09:30am 13.0 3.3 -2.5 34 6.2 WSW 39 56 21 30 1018.9 - 0.0
04/09:00am 12.2 3.8 -1.3 39 5.5 WSW 33 48 18 26 1018.2 1017.7 0.0
04/08:32am 11.8 3.5 -0.6 42 5.1 WSW 33 52 18 28 1018.1 - 0.0
04/08:30am 11.9 3.2 -0.4 42 5.1 WSW 35 52 19 28 1018.0 - 0.0
04/08:00am 11.7 4.2 -1.1 41 5.2 WSW 28 50 15 27 1017.2 - 0.0
04/07:30am 11.3 2.2 -0.7 43 4.9 WSW 37 56 20 30 1016.6 - 0.0
04/07:00am 11.5 4.0 1.5 50 4.3 WSW 30 48 16 26 1015.8 - 0.0
04/06:51am 11.4 3.9 1.4 50 4.3 WSW 30 48 16 26 1015.6 - 0.0
04/06:30am 11.8 4.0 1.4 49 4.5 WSW 32 46 17 25 1015.2 - 0.0
04/06:00am 12.3 5.6 3.8 56 3.9 WSW 28 43 15 23 1014.5 1014.0 0.0
04/05:33am 13.2 4.9 6.2 62 3.4 WSW 39 57 21 31 1013.8 - 0.0
04/05:30am 13.2 4.5 6.2 62 3.4 WSW 41 57 22 31 1013.6 - 0.0
04/05:27am 13.5 3.9 6.3 61 3.5 SW 46 57 25 31 1013.4 - 0.0
04/05:24am 13.9 7.2 7.3 64 3.3 W 32 61 17 33 1013.3 - 0.0
04/05:00am 13.8 8.4 7.9 67 3.0 W 26 41 14 22 1012.9 - 0.0
04/04:30am 13.9 7.8 8.4 69 2.8 W 30 46 16 25 1012.5 - 0.0
04/04:00am 14.6 8.0 7.9 64 3.4 W 32 46 17 25 1012.0 - 0.0
04/03:30am 15.1 9.4 8.5 64 3.4 W 28 46 15 25 1011.6 - 0.0
04/03:29am 15.1 9.4 8.5 64 3.4 W 28 46 15 25 1011.6 - 0.0
04/03:00am 14.9 9.1 8.1 64 3.5 WNW 28 43 15 23 1011.0 1010.5 0.0
04/02:30am 15.1 9.9 7.4 60 3.9 WNW 24 41 13 22 1011.0 - 0.0
04/02:00am 15.2 10.2 6.3 55 4.4 WNW 22 41 12 22 1011.0 - 0.0
04/01:30am 15.7 10.1 5.4 50 5.0 WNW 24 35 13 19 1011.1 - 0.0
04/01:00am 15.4 10.5 3.9 46 5.4 WNW 19 26 10 14 1011.3 - 0.0
04/12:30am 15.5 10.9 3.5 44 5.6 WNW 17 28 9 15 1011.5 - 0.0
04/12:00am 14.7 10.9 3.8 48 5.1 NW 13 17 7 9 1011.4 1010.9 0.0
 
Date/Time
WST
Temp
°C
App
Temp
°C
Dew
Point
Rel
Hum
%
Delta-T
°C
Wind Press
QNH
hPa
Press
MSL
hPa
Rain
since 9 am
mm
Dir
 
Spd
km/h
Gust
km/h
Spd
kts
Gust
kts
03/11:30pm 14.5 11.4 3.8 48 5.0 NW 9 13 5 7 1012.0 - 0.0
03/11:00pm 14.3 11.3 4.0 50 4.8 NW 9 11 5 6 1012.3 - 0.0
03/10:30pm 14.7 11.7 4.1 49 5.0 NW 9 13 5 7 1012.4 - 0.0
03/10:00pm 15.6 12.6 3.9 45 5.5 WNW 9 15 5 8 1012.7 - 0.0
03/09:30pm 16.7 12.8 3.3 40 6.3 W 13 17 7 9 1012.8 - 0.0
03/09:00pm 17.1 13.2 3.3 39 6.5 W 13 19 7 10 1012.8 1012.3 0.0
03/08:30pm 18.0 13.0 3.5 38 6.9 W 19 26 10 14 1012.6 - 0.0
03/08:00pm 18.7 13.8 4.3 38 7.0 WSW 19 30 10 16 1012.4 - 0.0
03/07:30pm 19.3 14.4 4.9 38 7.1 WSW 20 32 11 17 1012.1 - 0.0
03/07:00pm 19.9 15.2 5.9 40 7.1 WSW 20 28 11 15 1011.8 - 0.0
03/06:30pm 20.2 17.0 6.8 41 6.9 W 13 19 7 10 1011.0 - 0.0

Other Formats:

Comma delimited format used in spreadsheet applications
http://www.bom.gov.au/fwo/IDW60801/IDW60801.94637.axf

JavaScript Object Notation format (JSON) in row-major order
http://www.bom.gov.au/fwo/IDW60801/IDW60801.94637.json